createdAt,value
2017-10-13T00:01:21.021Z,4.17
2017-10-13T00:03:49.307Z,3.50
2017-10-13T00:06:19.185Z,4.00
2017-10-13T00:08:47.481Z,4.07
2017-10-13T00:11:15.782Z,3.70
2017-10-13T00:13:44.830Z,3.03
2017-10-13T00:16:13.093Z,4.67
2017-10-13T00:18:41.378Z,4.30
2017-10-13T00:21:11.449Z,3.83
2017-10-13T00:23:40.649Z,3.67
2017-10-13T00:26:09.919Z,3.53
2017-10-13T00:28:38.165Z,4.50
2017-10-13T00:31:07.186Z,3.90
2017-10-13T00:33:35.463Z,4.30
2017-10-13T00:36:03.743Z,4.10
2017-10-13T00:38:32.825Z,4.10
2017-10-13T00:41:01.103Z,3.70
2017-10-13T00:43:29.380Z,3.83
2017-10-13T00:45:57.659Z,3.97
2017-10-13T00:48:25.946Z,3.60
2017-10-13T00:50:54.193Z,3.90
2017-10-13T00:53:22.454Z,3.93
2017-10-13T00:55:51.510Z,3.80
2017-10-13T00:58:20.780Z,3.90
2017-10-13T01:00:49.020Z,4.03
2017-10-13T01:03:18.171Z,4.00
2017-10-13T01:05:47.409Z,4.00
2017-10-13T01:08:15.704Z,3.00
2017-10-13T01:10:44.043Z,3.50
2017-10-13T01:13:13.829Z,4.90
2017-10-13T01:15:42.126Z,3.80
2017-10-13T01:18:10.406Z,4.37
2017-10-13T01:20:38.786Z,4.00
2017-10-13T01:23:07.081Z,2.90
2017-10-13T01:25:35.382Z,5.07
2017-10-13T01:28:03.669Z,3.50
2017-10-13T01:30:32.016Z,4.13
2017-10-13T01:33:00.342Z,3.50
2017-10-13T01:35:28.664Z,4.43
2017-10-13T01:37:57.770Z,3.70
2017-10-13T01:40:26.072Z,4.17
2017-10-13T01:42:54.369Z,4.10
2017-10-13T01:45:22.713Z,3.00
2017-10-13T01:47:51.002Z,3.00
2017-10-13T01:50:19.273Z,3.60
2017-10-13T01:52:47.584Z,4.30
2017-10-13T01:55:15.837Z,3.70
2017-10-13T01:57:44.111Z,3.30
2017-10-13T02:00:12.431Z,4.23
2017-10-13T02:02:41.480Z,3.17
2017-10-13T02:05:10.736Z,3.10
2017-10-13T02:07:40.069Z,2.83
2017-10-13T02:10:09.144Z,3.97
2017-10-13T02:12:37.495Z,4.37
2017-10-13T02:15:06.602Z,3.80
2017-10-13T02:17:34.882Z,3.63
2017-10-13T02:20:03.137Z,3.57
2017-10-13T02:22:32.224Z,3.77
2017-10-13T02:25:01.362Z,3.67
2017-10-13T02:27:30.556Z,3.67
2017-10-13T02:29:58.811Z,3.33
2017-10-13T02:32:27.104Z,4.43
2017-10-13T02:34:55.402Z,3.40
2017-10-13T02:37:24.490Z,3.60
2017-10-13T02:39:53.542Z,3.70
2017-10-13T02:42:21.828Z,4.30
2017-10-13T02:44:50.096Z,4.50
2017-10-13T02:47:18.401Z,3.87
2017-10-13T02:49:47.435Z,3.87
2017-10-13T02:52:15.723Z,3.83
2017-10-13T02:54:43.976Z,6.20
2017-10-13T02:57:12.254Z,3.53
2017-10-13T02:59:41.604Z,4.70
2017-10-13T03:02:09.831Z,3.57
2017-10-13T03:04:38.097Z,3.30
2017-10-13T03:07:07.920Z,2.93
2017-10-13T03:09:36.205Z,3.30
2017-10-13T03:12:04.444Z,3.00
2017-10-13T03:14:32.700Z,3.47
2017-10-13T03:17:00.968Z,4.23
2017-10-13T03:19:29.283Z,3.27
2017-10-13T03:21:57.582Z,3.70
2017-10-13T03:24:26.613Z,4.10
2017-10-13T03:26:54.892Z,4.87
2017-10-13T03:29:23.156Z,4.53
2017-10-13T03:31:51.400Z,3.40
2017-10-13T03:34:21.279Z,4.30
2017-10-13T03:36:51.392Z,3.80
2017-10-13T03:39:19.774Z,4.10
2017-10-13T03:41:48.141Z,3.73
2017-10-13T03:44:17.342Z,4.07
2017-10-13T03:46:46.463Z,4.93
2017-10-13T03:49:15.526Z,3.70
2017-10-13T03:51:43.831Z,4.37
2017-10-13T03:54:12.886Z,3.43
2017-10-13T03:56:41.194Z,3.77
2017-10-13T03:59:09.489Z,3.90
2017-10-13T04:01:38.533Z,3.73
2017-10-13T04:04:06.828Z,4.60
2017-10-13T04:06:35.075Z,4.07
2017-10-13T04:09:03.361Z,3.73
2017-10-13T04:11:31.627Z,4.20
2017-10-13T04:14:00.649Z,3.63
2017-10-13T04:16:28.943Z,4.53
2017-10-13T04:18:57.987Z,5.57
2017-10-13T04:21:27.220Z,4.50
2017-10-13T04:23:55.489Z,3.90
2017-10-13T04:26:24.715Z,4.83
2017-10-13T04:28:53.774Z,4.10
2017-10-13T04:31:22.040Z,3.90
2017-10-13T04:33:50.396Z,5.10
2017-10-13T04:36:18.809Z,4.60
2017-10-13T04:38:50.510Z,4.50
2017-10-13T04:41:19.082Z,4.27
2017-10-13T04:43:48.186Z,4.00
2017-10-13T04:46:17.215Z,4.20
2017-10-13T04:48:46.831Z,4.43
2017-10-13T04:51:15.160Z,6.10
2017-10-13T04:53:44.161Z,4.00
2017-10-13T04:56:13.600Z,4.63
2017-10-13T04:58:42.657Z,4.10
2017-10-13T05:01:10.948Z,7.50
2017-10-13T05:03:40.198Z,5.60
2017-10-13T05:06:08.491Z,4.47
2017-10-13T05:08:36.760Z,5.73
2017-10-13T05:11:06.337Z,4.50
2017-10-13T05:13:34.636Z,4.47
2017-10-13T05:16:02.953Z,4.67
2017-10-13T05:18:31.250Z,3.63
2017-10-13T05:20:59.508Z,4.47
2017-10-13T05:23:28.553Z,4.17
2017-10-13T05:25:56.852Z,4.97
2017-10-13T05:28:25.120Z,4.43
2017-10-13T05:30:53.371Z,5.13
2017-10-13T05:33:21.667Z,4.63
2017-10-13T05:35:49.994Z,5.50
2017-10-13T05:38:19.072Z,4.67
2017-10-13T05:40:47.366Z,4.73
2017-10-13T05:43:15.635Z,5.87
2017-10-13T05:45:43.959Z,5.53
2017-10-13T05:48:13.402Z,4.87
2017-10-13T05:50:42.279Z,4.87
2017-10-13T05:53:10.564Z,5.60
2017-10-13T05:55:38.846Z,4.60
2017-10-13T05:58:07.249Z,5.13
2017-10-13T06:00:37.530Z,5.97
2017-10-13T06:03:06.216Z,5.50
2017-10-13T06:05:36.253Z,5.87
2017-10-13T06:08:04.716Z,6.27
2017-10-13T06:10:33.007Z,5.17
2017-10-13T06:13:01.249Z,4.87
2017-10-13T06:15:29.537Z,4.87
2017-10-13T06:17:57.839Z,5.00
2017-10-13T06:20:26.086Z,4.97
2017-10-13T06:22:54.816Z,6.03
2017-10-13T06:25:23.850Z,6.03
2017-10-13T06:27:52.103Z,5.10
2017-10-13T06:30:20.357Z,6.57
2017-10-13T06:32:48.643Z,6.13
2017-10-13T06:35:17.660Z,6.20
2017-10-13T06:37:46.809Z,5.87
2017-10-13T06:40:15.203Z,6.37
2017-10-13T06:42:44.265Z,5.73
2017-10-13T06:45:12.530Z,5.30
2017-10-13T06:47:40.866Z,5.97
2017-10-13T06:50:09.140Z,5.80
2017-10-13T06:52:38.165Z,5.83
2017-10-13T06:55:07.573Z,5.77
2017-10-13T06:57:35.842Z,6.57
2017-10-13T07:00:05.113Z,5.60
2017-10-13T07:02:35.108Z,5.73
2017-10-13T07:05:04.229Z,7.87
2017-10-13T07:07:32.608Z,6.10
2017-10-13T07:10:00.911Z,5.03
2017-10-13T07:12:33.334Z,6.73
2017-10-13T07:15:01.698Z,6.20
2017-10-13T07:17:30.009Z,5.80
2017-10-13T07:19:58.498Z,7.60
2017-10-13T07:22:27.772Z,6.33
2017-10-13T07:24:56.105Z,7.23
2017-10-13T07:27:24.570Z,7.03
2017-10-13T07:29:53.104Z,7.57
2017-10-13T07:32:24.488Z,6.53
2017-10-13T07:34:53.650Z,6.33
2017-10-13T07:37:22.758Z,6.50
2017-10-13T07:39:52.796Z,7.00
2017-10-13T07:42:23.014Z,6.83
2017-10-13T07:44:51.430Z,7.37
2017-10-13T07:47:19.757Z,7.90
2017-10-13T07:49:48.222Z,7.30
2017-10-13T07:52:16.765Z,7.90
2017-10-13T07:54:45.410Z,9.23
2017-10-13T07:57:13.763Z,9.57
2017-10-13T07:59:43.071Z,8.60
2017-10-13T08:02:11.765Z,8.53
2017-10-13T08:04:40.084Z,10.30
2017-10-13T08:07:08.492Z,8.50
2017-10-13T08:09:37.800Z,8.40
2017-10-13T08:12:07.001Z,9.50
2017-10-13T08:14:35.454Z,8.40
2017-10-13T08:17:04.610Z,8.50
2017-10-13T08:19:33.042Z,7.43
2017-10-13T08:22:02.280Z,8.13
2017-10-13T08:24:30.664Z,7.13
2017-10-13T08:27:00.863Z,6.20
2017-10-13T08:29:29.406Z,5.13
2017-10-13T08:31:58.737Z,6.93
2017-10-13T08:34:27.248Z,5.90
2017-10-13T08:36:55.598Z,5.60
2017-10-13T08:39:23.924Z,6.13
2017-10-13T08:41:53.143Z,6.53
2017-10-13T08:44:22.234Z,6.10
2017-10-13T08:46:51.571Z,5.83
2017-10-13T08:49:20.764Z,6.33
2017-10-13T08:51:50.086Z,7.13
2017-10-13T08:54:18.546Z,6.17
2017-10-13T08:56:47.154Z,5.33
2017-10-13T08:59:15.851Z,6.17
2017-10-13T09:01:47.603Z,6.10
2017-10-13T09:04:15.957Z,6.10
2017-10-13T09:06:46.142Z,6.30
2017-10-13T09:09:14.764Z,6.83
2017-10-13T09:11:44.214Z,7.43
2017-10-13T09:14:13.515Z,7.80
2017-10-13T09:16:42.649Z,7.57
2017-10-13T09:19:10.984Z,7.47
2017-10-13T09:21:39.250Z,7.30
2017-10-13T09:24:07.552Z,8.73
2017-10-13T09:26:35.897Z,7.30
2017-10-13T09:29:04.256Z,8.77
2017-10-13T09:31:33.546Z,7.03
2017-10-13T09:34:02.700Z,7.40
2017-10-13T09:36:30.976Z,7.10
2017-10-13T09:38:59.296Z,6.80
2017-10-13T09:41:29.413Z,7.43
2017-10-13T09:43:57.691Z,7.70
2017-10-13T09:46:26.038Z,7.80
2017-10-13T09:48:55.269Z,8.37
2017-10-13T09:51:24.344Z,7.57
2017-10-13T09:53:52.633Z,7.90
2017-10-13T09:56:21.348Z,7.40
2017-10-13T09:58:50.441Z,6.43
2017-10-13T10:01:19.468Z,7.50
2017-10-13T10:03:47.816Z,6.97
2017-10-13T10:06:16.990Z,6.93
2017-10-13T10:08:45.361Z,7.10
2017-10-13T10:11:13.635Z,5.73
2017-10-13T10:13:41.904Z,6.27
2017-10-13T10:16:10.215Z,7.20
2017-10-13T10:18:39.247Z,7.23
2017-10-13T10:21:07.590Z,7.20
2017-10-13T10:23:37.448Z,6.57
2017-10-13T10:26:05.743Z,6.50
2017-10-13T10:28:34.893Z,7.03
2017-10-13T10:31:03.249Z,6.60
2017-10-13T10:33:32.447Z,7.73
2017-10-13T10:36:00.776Z,6.83
2017-10-13T10:38:29.040Z,7.40
2017-10-13T10:40:57.813Z,6.73
2017-10-13T10:43:26.093Z,5.80
2017-10-13T10:45:54.458Z,6.80
2017-10-13T10:48:22.844Z,6.23
2017-10-13T10:50:51.162Z,6.87
2017-10-13T10:53:19.868Z,8.00
2017-10-13T10:55:48.201Z,5.10
2017-10-13T10:58:17.353Z,6.77
2017-10-13T11:00:45.755Z,6.27
2017-10-13T11:03:14.838Z,6.10
2017-10-13T11:05:43.966Z,7.30
2017-10-13T11:08:12.859Z,6.53
2017-10-13T11:10:42.819Z,6.27
2017-10-13T11:13:11.118Z,7.97
2017-10-13T11:15:41.154Z,6.60
2017-10-13T11:18:10.438Z,5.80
2017-10-13T11:20:38.903Z,5.90
2017-10-13T11:23:07.570Z,6.27
2017-10-13T11:25:36.879Z,6.10
2017-10-13T11:28:07.044Z,6.63
2017-10-13T11:30:35.394Z,6.30
2017-10-13T11:33:03.753Z,7.10
2017-10-13T11:35:32.139Z,6.90
2017-10-13T11:38:00.400Z,5.77
2017-10-13T11:40:28.724Z,6.83
2017-10-13T11:42:57.024Z,6.00
2017-10-13T11:45:25.449Z,6.60
2017-10-13T11:47:54.809Z,6.70
2017-10-13T11:50:23.230Z,6.47
2017-10-13T11:52:52.440Z,5.80
2017-10-13T11:55:21.690Z,6.53
2017-10-13T11:57:50.805Z,6.90
2017-10-13T12:00:19.134Z,5.30
2017-10-13T12:02:47.460Z,6.00
2017-10-13T12:05:15.745Z,5.73
2017-10-13T12:07:44.037Z,6.03
2017-10-13T12:10:13.315Z,5.83
2017-10-13T12:12:42.319Z,5.90
2017-10-13T12:15:10.600Z,5.80
2017-10-13T12:17:39.698Z,6.00
2017-10-13T12:20:08.798Z,5.30
2017-10-13T12:22:39.842Z,4.70
2017-10-13T12:25:09.980Z,5.10
2017-10-13T12:27:38.986Z,6.30
2017-10-13T12:30:07.341Z,6.07
2017-10-13T12:32:35.631Z,7.33
2017-10-13T12:35:03.948Z,7.60
2017-10-13T12:37:32.327Z,6.53
2017-10-13T12:40:00.640Z,6.33
2017-10-13T12:42:29.716Z,6.97
2017-10-13T12:44:58.015Z,7.00
2017-10-13T12:47:26.387Z,6.57
2017-10-13T12:49:54.657Z,7.20
2017-10-13T12:52:23.060Z,5.30
2017-10-13T12:54:52.177Z,6.47
2017-10-13T12:57:21.238Z,6.60
2017-10-13T12:59:49.719Z,5.90
2017-10-13T13:02:18.001Z,6.23
2017-10-13T13:04:47.183Z,5.43
2017-10-13T13:07:16.321Z,5.40
2017-10-13T13:09:44.623Z,5.83
2017-10-13T13:12:12.886Z,4.80
2017-10-13T13:14:41.196Z,4.40
2017-10-13T13:17:09.512Z,4.57
2017-10-13T13:19:38.794Z,4.40
2017-10-13T13:22:07.866Z,3.90
2017-10-13T13:24:36.208Z,4.00
2017-10-13T13:27:04.632Z,3.97
2017-10-13T13:29:33.467Z,4.17
2017-10-13T13:32:03.441Z,3.60
2017-10-13T13:34:31.767Z,4.00
2017-10-13T13:37:00.063Z,3.23
2017-10-13T13:39:28.342Z,3.37
2017-10-13T13:41:56.668Z,2.67
2017-10-13T13:44:25.723Z,3.43
2017-10-13T13:46:54.069Z,2.83
2017-10-13T13:49:23.122Z,3.30
2017-10-13T13:51:51.376Z,3.13
2017-10-13T13:54:19.853Z,2.97
2017-10-13T13:56:48.262Z,3.13
2017-10-13T13:59:16.566Z,3.10
2017-10-13T14:01:46.591Z,3.00
2017-10-13T14:04:15.383Z,3.50
2017-10-13T14:06:43.738Z,3.10
2017-10-13T14:09:13.046Z,3.73
2017-10-13T14:11:42.213Z,3.27
2017-10-13T14:14:11.464Z,3.63
2017-10-13T14:16:39.781Z,3.07
2017-10-13T14:19:08.113Z,3.70
2017-10-13T14:21:37.175Z,2.90
2017-10-13T14:24:09.109Z,2.90
2017-10-13T14:26:37.415Z,3.50
2017-10-13T14:29:06.490Z,3.47
2017-10-13T14:31:34.810Z,3.23
2017-10-13T14:34:04.182Z,3.67
2017-10-13T14:36:33.433Z,3.90
2017-10-13T14:39:02.677Z,4.20
2017-10-13T14:41:30.992Z,3.53
2017-10-13T14:43:59.386Z,3.33
2017-10-13T14:46:27.698Z,3.03
2017-10-13T14:48:56.990Z,3.20
2017-10-13T14:51:27.050Z,3.93
2017-10-13T14:53:56.237Z,3.97
2017-10-13T14:56:25.436Z,3.30
2017-10-13T14:58:53.810Z,3.40
2017-10-13T15:01:23.056Z,3.57
2017-10-13T15:03:51.350Z,3.70
2017-10-13T15:06:19.733Z,3.77
2017-10-13T15:08:48.357Z,4.00
2017-10-13T15:11:18.397Z,3.30
2017-10-13T15:13:47.916Z,4.67
2017-10-13T15:16:16.646Z,4.37
2017-10-13T15:18:46.334Z,4.53
2017-10-13T15:21:15.038Z,4.40
2017-10-13T15:23:43.723Z,3.63
2017-10-13T15:26:18.739Z,4.20
2017-10-13T15:28:53.791Z,3.80
2017-10-13T15:31:28.987Z,3.93
2017-10-13T15:34:04.597Z,4.03
2017-10-13T15:36:33.036Z,4.13
2017-10-13T15:39:22.207Z,3.70
2017-10-13T15:41:56.426Z,3.80
2017-10-13T15:50:09.790Z,4.57
2017-10-13T15:52:38.933Z,4.27
2017-10-13T15:55:07.498Z,4.37
2017-10-13T15:57:36.152Z,4.20
2017-10-13T16:00:04.736Z,4.57
2017-10-13T16:02:33.573Z,3.93
2017-10-13T16:05:02.427Z,4.80
2017-10-13T16:07:31.025Z,3.70
2017-10-13T16:09:59.477Z,3.80
2017-10-13T16:12:28.132Z,5.50
2017-10-13T16:14:56.800Z,4.23
2017-10-13T16:17:25.238Z,3.73
2017-10-13T16:19:53.845Z,4.40
2017-10-13T16:22:22.249Z,3.70
2017-10-13T16:24:50.652Z,3.90
2017-10-13T16:27:19.194Z,3.70
2017-10-13T16:29:47.782Z,5.00
2017-10-13T16:32:16.523Z,5.43
2017-10-13T16:34:45.113Z,4.43
2017-10-13T16:37:14.588Z,4.97
2017-10-13T16:39:43.083Z,4.47
2017-10-13T16:42:11.741Z,4.20
2017-10-13T16:44:40.166Z,5.63
2017-10-13T16:47:08.922Z,6.40
2017-10-13T16:49:37.515Z,6.77
2017-10-13T16:52:05.946Z,4.53
2017-10-13T16:54:34.671Z,4.87
2017-10-13T16:57:03.449Z,5.23
2017-10-13T16:59:31.795Z,4.83
2017-10-13T17:02:00.261Z,5.03
2017-10-13T17:04:29.009Z,7.70
2017-10-13T17:06:58.097Z,5.83
2017-10-13T17:09:27.359Z,5.30
2017-10-13T17:11:57.152Z,4.63
2017-10-13T17:14:25.685Z,5.23
2017-10-13T17:16:54.098Z,5.60
2017-10-13T17:19:23.613Z,6.23
2017-10-13T17:21:52.877Z,5.93
2017-10-13T17:24:21.303Z,6.60
2017-10-13T17:26:49.757Z,5.80
2017-10-13T17:29:18.257Z,6.00
2017-10-13T17:31:46.895Z,5.90
2017-10-13T17:34:16.292Z,5.33
2017-10-13T17:36:45.717Z,5.53
2017-10-13T17:39:15.152Z,6.40
2017-10-13T17:41:43.744Z,6.20
2017-10-13T17:44:12.218Z,6.23
2017-10-13T17:46:40.622Z,7.30
2017-10-13T17:49:09.054Z,5.97
2017-10-13T17:51:37.731Z,7.13
2017-10-13T17:54:07.110Z,7.47
2017-10-13T17:56:36.039Z,7.07
2017-10-13T17:59:04.654Z,6.60
2017-10-13T18:01:34.545Z,6.53
2017-10-13T18:04:03.875Z,6.83
2017-10-13T18:06:32.329Z,5.90
2017-10-13T18:09:01.147Z,5.73
2017-10-13T18:11:30.554Z,6.50
2017-10-13T18:13:59.131Z,6.43
2017-10-13T18:16:27.800Z,6.67
2017-10-13T18:18:57.457Z,7.07
2017-10-13T18:21:26.020Z,6.23
2017-10-13T18:23:54.763Z,6.53
2017-10-13T18:26:27.679Z,6.57
2017-10-13T18:28:56.258Z,6.60
2017-10-13T18:31:25.447Z,6.40
2017-10-13T18:33:55.444Z,7.20
2017-10-13T18:36:24.387Z,5.80
2017-10-13T18:38:53.128Z,6.97
2017-10-13T18:41:22.913Z,6.60
2017-10-13T18:43:51.220Z,6.93
2017-10-13T18:46:21.385Z,6.90
2017-10-13T18:48:49.831Z,6.57
2017-10-13T18:51:18.889Z,7.60
2017-10-13T18:53:47.818Z,6.50
2017-10-13T18:56:17.328Z,6.90
2017-10-13T18:58:50.769Z,6.83
2017-10-13T19:01:24.708Z,6.73
2017-10-13T19:03:54.293Z,6.53
2017-10-13T19:06:25.167Z,6.90
2017-10-13T19:08:54.660Z,6.37
2017-10-13T19:11:25.963Z,6.60
2017-10-13T19:13:54.559Z,5.90
2017-10-13T19:16:23.960Z,6.10
2017-10-13T19:18:53.322Z,6.77
2017-10-13T19:21:22.003Z,7.00
2017-10-13T19:23:52.650Z,6.53
2017-10-13T19:26:23.045Z,6.07
2017-10-13T19:28:52.719Z,6.50
2017-10-13T19:31:22.141Z,5.80
2017-10-13T19:33:51.181Z,6.57
2017-10-13T19:36:20.520Z,5.63
2017-10-13T19:38:50.685Z,5.57
2017-10-13T19:41:20.116Z,5.80
2017-10-13T19:43:48.770Z,6.07
2017-10-13T19:46:18.690Z,5.90
2017-10-13T19:48:47.780Z,6.70
2017-10-13T19:51:16.592Z,6.40
2017-10-13T19:53:46.534Z,5.83
2017-10-13T19:56:15.482Z,6.97
2017-10-13T19:58:43.930Z,6.20
2017-10-13T20:01:12.959Z,5.63
2017-10-13T20:03:43.192Z,6.80
2017-10-13T20:06:12.902Z,6.03
2017-10-13T20:08:41.511Z,6.03
2017-10-13T20:11:12.197Z,6.23
2017-10-13T20:13:41.029Z,5.67
2017-10-13T20:16:09.779Z,6.07
2017-10-13T20:18:39.955Z,5.90
2017-10-13T20:21:12.319Z,6.07
2017-10-13T20:23:41.489Z,5.90
2017-10-13T20:26:10.773Z,5.30
2017-10-13T20:28:39.445Z,5.30
2017-10-13T20:31:09.423Z,5.87
2017-10-13T20:33:38.054Z,5.47
2017-10-13T20:36:06.495Z,5.83
2017-10-13T20:38:35.124Z,6.00
2017-10-13T20:41:10.107Z,6.13
2017-10-13T20:43:38.645Z,5.37
2017-10-13T20:46:07.106Z,7.50
2017-10-13T20:48:35.805Z,6.83
2017-10-13T20:51:08.096Z,5.40
2017-10-13T20:53:38.672Z,6.40
2017-10-13T20:56:08.102Z,5.90
2017-10-13T20:58:39.993Z,6.63
2017-10-13T21:01:12.286Z,5.93
2017-10-13T21:03:40.940Z,6.23
2017-10-13T21:06:12.791Z,5.47
2017-10-13T21:08:41.977Z,6.73
2017-10-13T21:11:12.010Z,5.43
2017-10-13T21:13:40.809Z,7.10
2017-10-13T21:16:09.688Z,6.97
2017-10-13T21:18:38.161Z,6.37
2017-10-13T21:21:09.653Z,6.00
2017-10-13T21:23:38.096Z,6.07
2017-10-13T21:26:06.768Z,6.03
2017-10-13T21:28:35.884Z,6.87
2017-10-13T21:31:05.541Z,8.80
2017-10-13T21:33:34.685Z,6.90
2017-10-13T21:36:07.888Z,5.87
2017-10-13T21:38:37.104Z,6.27
2017-10-13T21:41:05.447Z,5.77
2017-10-13T21:43:34.534Z,6.20
2017-10-13T21:46:03.636Z,5.43
2017-10-13T21:48:32.001Z,5.70
2017-10-13T21:51:00.271Z,7.40
2017-10-13T21:53:28.628Z,7.07
2017-10-13T21:55:56.939Z,6.47
2017-10-13T21:58:25.242Z,6.07
2017-10-13T22:00:53.705Z,6.50
2017-10-13T22:03:22.183Z,5.83
2017-10-13T22:05:50.539Z,6.43
2017-10-13T22:08:18.866Z,6.20
2017-10-13T22:10:47.976Z,7.13
2017-10-13T22:13:16.356Z,6.60
2017-10-13T22:15:44.790Z,6.77
2017-10-13T22:18:13.844Z,5.70
2017-10-13T22:20:42.141Z,7.07
2017-10-13T22:23:10.594Z,7.20
2017-10-13T22:25:39.022Z,6.53
2017-10-13T22:28:07.342Z,6.43
2017-10-13T22:30:35.617Z,6.53
2017-10-13T22:33:03.905Z,7.43
2017-10-13T22:35:32.375Z,5.60
2017-10-13T22:38:00.699Z,6.87
2017-10-13T22:40:29.739Z,6.07
2017-10-13T22:42:58.041Z,6.60
2017-10-13T22:45:26.322Z,7.43
2017-10-13T22:47:54.625Z,5.80
2017-10-13T22:50:22.924Z,7.13
2017-10-13T22:52:51.213Z,6.27
2017-10-13T22:55:20.401Z,6.37
2017-10-13T22:57:49.455Z,6.10
2017-10-13T23:00:17.767Z,6.70
2017-10-13T23:02:46.854Z,6.63
2017-10-13T23:05:15.109Z,5.73
2017-10-13T23:07:44.973Z,5.77
2017-10-13T23:10:13.245Z,6.67
2017-10-13T23:12:42.295Z,5.77
2017-10-13T23:15:10.624Z,6.57
2017-10-13T23:17:38.952Z,5.83
2017-10-13T23:20:08.003Z,6.10
2017-10-13T23:22:36.297Z,6.03
2017-10-13T23:25:04.614Z,5.83
2017-10-13T23:27:32.874Z,6.53
2017-10-13T23:30:01.182Z,7.00
2017-10-13T23:32:30.247Z,6.10
2017-10-13T23:34:59.314Z,6.20
2017-10-13T23:37:27.673Z,6.83
2017-10-13T23:39:56.682Z,6.00
2017-10-13T23:42:24.996Z,6.10
2017-10-13T23:44:53.640Z,6.23
2017-10-13T23:47:22.695Z,6.70
2017-10-13T23:49:50.939Z,6.00
2017-10-13T23:52:19.247Z,6.10
2017-10-13T23:54:47.778Z,5.90
2017-10-13T23:57:16.061Z,6.47
2017-10-13T23:59:44.513Z,5.60
